Kenora, Canada
Current Conditions -  °F | °C
As of 2:00 AM on Saturday 25 Oct 2014 (Local Time) from CYQK Reporting Station
Broken Clouds Broken Clouds  
Wind Chill: 41°   Ceiling: 4200
Heat Index: 48°   Visibility: 15mi
Dew Point: 34°   Wind: 22mph
Humidity: 57%   Direction: 310°NW
Pressure: 29.75"   Gusts: 31mph
Location:  49.77°N, 94.46°W
Report Text: CYQK 250700Z 31019G27KT 15SM BKN042 09/01 A2975 RMK SC7 SLP083
Loading
Personal Weather Stations






























Interactive Weather Map
Tropical Storm Tracking
New forecast layout! Learn more

10-Day Weather Forecast

Advertisements
Track Severe Weather on mobile